createdAt,value
2019-04-04T00:01:47.797Z,12.28
2019-04-04T00:04:17.521Z,13.18
2019-04-04T00:06:47.666Z,13.35
2019-04-04T00:09:17.764Z,13.32
2019-04-04T00:11:47.912Z,13.55
2019-04-04T00:14:18.153Z,12.53
2019-04-04T00:16:48.748Z,13.00
2019-04-04T00:19:19.489Z,13.53
2019-04-04T00:21:49.598Z,13.80
2019-04-04T00:24:19.728Z,13.00
2019-04-04T00:26:49.837Z,13.22
2019-04-04T00:29:19.979Z,13.05
2019-04-04T00:31:50.306Z,14.00
2019-04-04T00:34:20.537Z,12.85
2019-04-04T00:36:50.770Z,13.05
2019-04-04T00:39:21.258Z,13.22
2019-04-04T00:41:51.416Z,12.82
2019-04-04T00:44:23.121Z,13.95
2019-04-04T00:46:55.102Z,13.72
2019-04-04T00:49:25.280Z,12.43
2019-04-04T00:51:55.498Z,13.00
2019-04-04T00:54:25.685Z,12.85
2019-04-04T00:56:55.843Z,12.68
2019-04-04T00:59:26.043Z,13.22
2019-04-04T01:01:56.990Z,13.98
2019-04-04T01:04:30.746Z,14.10
2019-04-04T01:06:59.568Z,13.50
2019-04-04T01:09:29.929Z,14.40
2019-04-04T01:12:00.381Z,14.63
2019-04-04T01:14:30.559Z,16.57
2019-04-04T01:17:02.032Z,17.98
2019-04-04T01:19:32.549Z,16.87
2019-04-04T01:22:02.685Z,15.25
2019-04-04T01:24:32.880Z,15.25
2019-04-04T01:27:04.164Z,14.45
2019-04-04T01:29:35.220Z,12.80
2019-04-04T01:32:05.370Z,13.05
2019-04-04T01:34:37.775Z,12.07
2019-04-04T01:37:08.963Z,12.70
2019-04-04T01:39:39.038Z,11.95
2019-04-04T01:42:09.156Z,12.45
2019-04-04T01:44:40.142Z,11.63
2019-04-04T01:47:11.323Z,10.88
2019-04-04T01:49:41.411Z,10.72
2019-04-04T01:52:11.504Z,9.73
2019-04-04T01:54:41.617Z,9.33
2019-04-04T01:57:12.289Z,8.95
2019-04-04T01:59:43.931Z,8.85
2019-04-04T02:02:14.137Z,8.15
2019-04-04T02:04:44.223Z,7.33
2019-04-04T02:07:14.294Z,7.60
2019-04-04T02:09:44.422Z,7.60
2019-04-04T02:12:14.547Z,7.08
2019-04-04T02:14:44.672Z,6.87
2019-04-04T02:17:15.000Z,6.97
2019-04-04T02:19:45.370Z,6.35
2019-04-04T02:22:15.428Z,6.10
2019-04-04T02:24:45.496Z,6.15
2019-04-04T02:27:15.568Z,5.80
2019-04-04T02:29:46.192Z,4.83
2019-04-04T02:32:17.621Z,4.25
2019-04-04T02:34:48.931Z,4.35
2019-04-04T02:37:21.202Z,3.67
2019-04-04T02:39:50.787Z,3.95
2019-04-04T02:42:22.245Z,3.55
2019-04-04T02:44:52.616Z,3.33
2019-04-04T02:47:23.025Z,3.77
2019-04-04T02:49:53.093Z,3.10
2019-04-04T02:52:23.171Z,3.30
2019-04-04T02:54:57.166Z,3.08
2019-04-04T02:57:25.031Z,2.70
2019-04-04T02:59:55.079Z,2.70
2019-04-04T03:02:25.192Z,2.85
2019-04-04T03:04:55.522Z,2.83
2019-04-04T03:07:29.850Z,3.08
2019-04-04T03:09:57.362Z,3.25
2019-04-04T03:12:27.455Z,3.17
2019-04-04T03:14:57.528Z,3.52
2019-04-04T03:17:31.485Z,3.30
2019-04-04T03:19:59.724Z,3.27
2019-04-04T03:22:29.812Z,3.20
2019-04-04T03:25:00.347Z,3.30
2019-04-04T03:27:30.432Z,3.52
2019-04-04T03:30:00.530Z,3.00
2019-04-04T03:32:31.563Z,3.30
2019-04-04T03:35:01.723Z,3.00
2019-04-04T03:37:31.963Z,2.80
2019-04-04T03:40:02.011Z,3.20
2019-04-04T03:42:32.244Z,3.27
2019-04-04T03:45:02.296Z,2.92
2019-04-04T03:47:32.372Z,2.98
2019-04-04T03:50:02.472Z,3.20
2019-04-04T03:52:32.568Z,3.30
2019-04-04T03:55:03.710Z,3.10
2019-04-04T03:57:33.761Z,2.80
2019-04-04T04:00:07.044Z,2.50
2019-04-04T04:02:36.223Z,2.50
2019-04-04T04:05:18.408Z,3.35
2019-04-04T04:07:49.085Z,2.85
2019-04-04T04:10:19.181Z,2.90
2019-04-04T04:12:49.229Z,2.58
2019-04-04T04:15:19.268Z,2.87
2019-04-04T04:17:49.334Z,2.87
2019-04-04T04:20:20.478Z,3.20
2019-04-04T04:22:51.524Z,3.20
2019-04-04T04:25:21.702Z,3.20
2019-04-04T04:27:51.797Z,3.10
2019-04-04T04:30:22.256Z,3.40
2019-04-04T04:32:53.112Z,4.22
2019-04-04T04:35:24.631Z,5.85
2019-04-04T04:37:54.678Z,6.53
2019-04-04T04:40:24.775Z,6.17
2019-04-04T04:42:54.826Z,5.60
2019-04-04T04:45:24.895Z,6.08
2019-04-04T04:47:57.077Z,6.22
2019-04-04T04:50:26.742Z,5.67
2019-04-04T04:52:56.853Z,5.75
2019-04-04T04:55:28.220Z,5.50
2019-04-04T04:57:58.786Z,4.28
2019-04-04T05:00:29.157Z,4.10
2019-04-04T05:03:00.653Z,4.20
2019-04-04T05:05:31.934Z,4.55
2019-04-04T05:08:02.089Z,5.28
2019-04-04T05:10:32.415Z,5.55
2019-04-04T05:13:02.638Z,5.12
2019-04-04T05:15:33.226Z,4.40
2019-04-04T05:18:03.572Z,3.77
2019-04-04T05:20:33.625Z,4.08
2019-04-04T05:23:03.727Z,3.52
2019-04-04T05:25:33.844Z,3.80
2019-04-04T05:28:06.187Z,4.12
2019-04-04T05:30:36.233Z,4.00
2019-04-04T05:33:06.374Z,4.08
2019-04-04T05:35:37.861Z,4.30
2019-04-04T05:38:08.126Z,3.83
2019-04-04T05:40:38.283Z,3.62
2019-04-04T05:43:08.728Z,3.80
2019-04-04T05:45:38.876Z,3.67
2019-04-04T05:48:08.918Z,4.08
2019-04-04T05:50:38.999Z,3.83
2019-04-04T05:53:09.093Z,4.08
2019-04-04T05:55:39.811Z,3.65
2019-04-04T05:58:42.894Z,3.98
2019-04-04T06:01:14.396Z,4.22
2019-04-04T06:03:46.994Z,4.08
2019-04-04T06:06:16.313Z,4.35
2019-04-04T06:08:46.527Z,4.40
2019-04-04T06:11:16.620Z,4.28
2019-04-04T06:13:46.696Z,3.95
2019-04-04T06:16:16.774Z,3.45
2019-04-04T06:18:49.156Z,4.33
2019-04-04T06:21:19.248Z,4.75
2019-04-04T06:23:49.401Z,4.60
2019-04-04T06:26:19.455Z,4.47
2019-04-04T06:28:49.565Z,4.92
2019-04-04T06:31:19.726Z,5.75
2019-04-04T06:33:49.914Z,5.03
2019-04-04T06:36:20.136Z,4.15
2019-04-04T06:38:50.257Z,4.28
2019-04-04T06:41:22.300Z,5.35
2019-04-04T06:43:52.391Z,5.10
2019-04-04T06:46:22.935Z,4.92
2019-04-04T06:48:53.099Z,5.40
2019-04-04T06:51:23.183Z,4.92
2019-04-04T06:53:54.457Z,4.62
2019-04-04T06:56:24.575Z,4.70
2019-04-04T06:58:54.703Z,5.00
2019-04-04T07:01:25.444Z,4.83
2019-04-04T07:03:59.077Z,4.80
2019-04-04T07:06:27.356Z,4.85
2019-04-04T07:08:58.186Z,4.67
2019-04-04T07:11:28.607Z,4.92
2019-04-04T07:13:59.783Z,4.75
2019-04-04T07:16:29.924Z,5.17
2019-04-04T07:19:00.307Z,5.72
2019-04-04T07:21:30.432Z,5.42
2019-04-04T07:24:00.521Z,5.53
2019-04-04T07:26:32.181Z,6.28
2019-04-04T07:29:02.711Z,6.62
2019-04-04T07:31:33.513Z,6.78
2019-04-04T07:34:05.938Z,7.55
2019-04-04T07:36:36.028Z,6.53
2019-04-04T07:39:07.358Z,6.67
2019-04-04T07:41:40.028Z,6.85
2019-04-04T07:44:09.238Z,9.50
2019-04-04T07:46:41.309Z,8.23
2019-04-04T07:49:11.556Z,7.78
2019-04-04T07:51:42.953Z,9.00
2019-04-04T07:54:13.419Z,9.10
2019-04-04T07:56:46.864Z,8.55
2019-04-04T07:59:15.342Z,7.78
2019-04-04T08:01:51.070Z,8.13
2019-04-04T08:04:17.611Z,6.83
2019-04-04T08:06:47.786Z,7.67
2019-04-04T08:09:18.007Z,7.47
2019-04-04T08:11:48.081Z,7.28
2019-04-04T08:14:18.319Z,7.40
2019-04-04T08:16:48.386Z,7.58
2019-04-04T08:19:18.559Z,7.58
2019-04-04T08:21:48.658Z,7.35
2019-04-04T08:24:18.867Z,6.67
2019-04-04T08:26:50.141Z,7.30
2019-04-04T08:29:20.216Z,7.70
2019-04-04T08:31:50.323Z,7.03
2019-04-04T08:34:20.396Z,7.67
2019-04-04T08:36:50.473Z,6.83
2019-04-04T08:39:20.544Z,8.53
2019-04-04T08:41:52.496Z,8.20
2019-04-04T08:44:23.680Z,8.65
2019-04-04T08:46:55.723Z,7.67
2019-04-04T08:49:25.940Z,8.73
2019-04-04T08:51:56.059Z,8.50
2019-04-04T08:54:26.440Z,8.05
2019-04-04T08:56:56.845Z,9.25
2019-04-04T08:59:26.931Z,9.35
2019-04-04T09:01:56.994Z,8.25
2019-04-04T09:04:27.377Z,9.18
2019-04-04T09:06:58.118Z,8.75
2019-04-04T09:09:28.239Z,8.00
2019-04-04T09:11:58.308Z,9.53
2019-04-04T09:14:28.438Z,8.50
2019-04-04T09:16:58.510Z,9.13
2019-04-04T09:19:29.695Z,9.15
2019-04-04T09:21:59.778Z,9.65
2019-04-04T09:24:29.881Z,8.43
2019-04-04T09:26:59.969Z,9.20
2019-04-04T09:29:30.076Z,10.38
2019-04-04T09:32:00.302Z,9.80
2019-04-04T09:34:30.373Z,8.63
2019-04-04T09:37:00.454Z,9.75
2019-04-04T09:39:30.617Z,10.48
2019-04-04T09:42:01.310Z,10.20
2019-04-04T09:44:31.386Z,10.05
2019-04-04T09:47:05.666Z,9.78
2019-04-04T09:49:33.522Z,10.35
2019-04-04T09:52:03.921Z,9.68
2019-04-04T09:54:34.535Z,10.78
2019-04-04T09:57:04.638Z,9.25
2019-04-04T09:59:34.919Z,10.48
2019-04-04T10:02:05.002Z,9.73
2019-04-04T10:04:35.454Z,11.30
2019-04-04T10:07:05.639Z,11.50
2019-04-04T10:09:35.995Z,12.23
2019-04-04T10:12:06.121Z,11.08
2019-04-04T10:14:36.540Z,10.05
2019-04-04T10:17:06.681Z,12.30
2019-04-04T10:19:37.066Z,12.58
2019-04-04T10:22:07.151Z,13.55
2019-04-04T10:24:37.502Z,11.10
2019-04-04T10:27:07.727Z,11.90
2019-04-04T10:29:37.859Z,11.48
2019-04-04T10:32:07.930Z,13.28
2019-04-04T10:34:38.151Z,11.57
2019-04-04T10:37:08.284Z,12.33
2019-04-04T10:39:38.411Z,12.18
2019-04-04T10:42:08.756Z,12.33
2019-04-04T10:44:38.836Z,12.70
2019-04-04T10:47:09.926Z,11.50
2019-04-04T10:49:40.025Z,12.28
2019-04-04T10:52:10.205Z,12.68
2019-04-04T10:54:40.378Z,12.13
2019-04-04T10:57:10.551Z,11.40
2019-04-04T10:59:40.621Z,12.45
2019-04-04T11:02:10.755Z,13.28
2019-04-04T11:04:40.827Z,12.47
2019-04-04T11:07:11.208Z,13.50
2019-04-04T11:09:42.423Z,13.38
2019-04-04T11:12:12.606Z,13.20
2019-04-04T11:14:42.828Z,12.45
2019-04-04T11:17:13.874Z,14.38
2019-04-04T11:19:44.089Z,13.80
2019-04-04T11:22:14.169Z,14.50
2019-04-04T11:24:44.564Z,14.75
2019-04-04T11:27:17.337Z,15.60
2019-04-04T11:29:46.458Z,14.33
2019-04-04T11:32:16.926Z,13.78
2019-04-04T11:34:53.028Z,15.00
2019-04-04T11:37:19.227Z,15.90
2019-04-04T11:39:54.751Z,13.95
2019-04-04T11:42:21.410Z,15.15
2019-04-04T11:44:51.528Z,13.55
2019-04-04T11:47:21.635Z,15.40
2019-04-04T11:49:51.991Z,15.45
2019-04-04T11:52:23.320Z,15.55
2019-04-04T11:54:59.005Z,17.73
2019-04-04T11:57:29.160Z,16.97
2019-04-04T11:59:59.782Z,17.00
2019-04-04T12:02:32.767Z,16.37
2019-04-04T12:05:04.193Z,16.25
2019-04-04T12:07:34.283Z,16.62
2019-04-04T12:10:07.788Z,15.88
2019-04-04T12:12:36.693Z,17.05
2019-04-04T12:15:06.992Z,14.38
2019-04-04T12:17:37.159Z,16.67
